Time;durP1;ratioP1;P1;durP2;ratioP2;P2;SDS_P1;SDS_P2;PMS_P1;PMS_P2;Temp;Humidity;BMP_temperature;BMP_pressure;BME280_temperature;BME280_humidity;BME280_pressure;Samples;Min_cycle;Max_cycle;Signal;HPM_P1;HPM_P2
2022/08/01 00:01:46;;;;;;;7.85;3.55;;;18.10;99.90;;;;;;4769046;30;20066;-87
2022/08/01 00:04:12;;;;;;;6.00;2.80;;;18.10;99.90;;;;;;4753933;30;20076;-87
2022/08/01 00:06:37;;;;;;;6.65;3.20;;;18.20;99.90;;;;;;4754495;30;20135;-86
2022/08/01 00:09:03;;;;;;;6.25;3.38;;;18.20;99.90;;;;;;4754235;30;20074;-86
2022/08/01 00:11:29;;;;;;;10.77;3.50;;;18.20;99.90;;;;;;4754191;30;20048;-86
2022/08/01 00:13:54;;;;;;;6.90;3.08;;;18.20;99.90;;;;;;4769345;30;20531;-86
2022/08/01 00:16:22;;;;;;;9.07;3.00;;;18.20;99.90;;;;;;4753502;30;20043;-86
2022/08/01 00:18:49;;;;;;;13.27;3.50;;;18.20;99.90;;;;;;4754506;30;20146;-86
2022/08/01 00:21:16;;;;;;;11.90;3.17;;;18.20;99.90;;;;;;4754450;30;20560;-87
2022/08/01 00:23:41;;;;;;;11.23;3.45;;;18.20;99.90;;;;;;4753822;30;20051;-86
2022/08/01 00:26:07;;;;;;;8.65;3.65;;;18.20;99.90;;;;;;4754126;30;20562;-87
2022/08/01 00:28:33;;;;;;;8.57;3.00;;;18.20;99.90;;;;;;4754287;30;20051;-86
2022/08/01 00:30:59;;;;;;;5.90;2.60;;;18.10;99.90;;;;;;4754248;30;20467;-86
2022/08/01 00:33:25;;;;;;;7.18;3.00;;;18.10;99.90;;;;;;4753426;30;20149;-86
2022/08/01 00:35:50;;;;;;;5.72;2.90;;;18.00;99.90;;;;;;4769205;30;20051;-87
2022/08/01 00:38:16;;;;;;;11.95;3.47;;;18.00;99.90;;;;;;4753477;30;20086;-86
2022/08/01 00:40:42;;;;;;;8.48;3.50;;;18.00;99.90;;;;;;4754395;30;20047;-86
2022/08/01 00:43:07;;;;;;;8.15;3.55;;;17.90;99.90;;;;;;4754705;30;20138;-86
2022/08/01 00:45:33;;;;;;;7.47;3.00;;;18.00;99.90;;;;;;4753543;30;20047;-86
2022/08/01 00:47:59;;;;;;;6.43;3.17;;;17.90;99.90;;;;;;4754273;30;20066;-86
2022/08/01 00:50:25;;;;;;;10.50;3.13;;;17.90;99.90;;;;;;4753653;30;20051;-86
2022/08/01 00:52:51;;;;;;;11.30;3.65;;;17.90;99.90;;;;;;4754041;30;20066;-86
2022/08/01 00:55:18;;;;;;;7.75;3.78;;;17.90;99.90;;;;;;4753941;30;20113;-86
2022/08/01 00:57:44;;;;;;;8.20;3.50;;;17.90;99.90;;;;;;4753396;30;20170;-86
2022/08/01 01:00:10;;;;;;;12.00;3.97;;;17.80;99.90;;;;;;4753251;30;20063;-86
2022/08/01 01:02:36;;;;;;;10.23;3.42;;;17.80;99.90;;;;;;4753591;30;20408;-86
2022/08/01 01:05:03;;;;;;;7.05;3.30;;;17.90;99.90;;;;;;4768812;30;20054;-85
2022/08/01 01:07:36;;;;;;;17.05;3.65;;;17.90;99.90;;;;;;4752919;30;20051;-87
2022/08/01 01:10:09;;;;;;;9.52;3.38;;;17.90;99.90;;;;;;4768528;30;20218;-86
2022/08/01 01:12:45;;;;;;;13.55;3.67;;;17.80;99.90;;;;;;4752896;30;20488;-86
2022/08/01 01:15:15;;;;;;;8.68;2.70;;;17.80;99.90;;;;;;4752745;30;20662;-86
2022/08/01 01:17:45;;;;;;;8.32;2.42;;;17.80;99.90;;;;;;4752878;30;20109;-85
2022/08/01 01:20:13;;;;;;;8.43;2.30;;;17.70;99.90;;;;;;4752131;30;20059;-86
2022/08/01 01:22:57;;;;;;;10.23;2.40;;;17.70;99.90;;;;;;4768044;30;20368;-85
2022/08/01 01:25:37;;;;;;;8.32;1.98;;;17.60;99.90;;;;;;4767602;30;20136;-85
2022/08/01 01:28:29;;;;;;;7.97;2.10;;;17.60;99.90;;;;;;4767286;30;20051;-85
2022/08/01 01:30:57;;;;;;;6.85;2.13;;;17.60;99.90;;;;;;4766765;30;20657;-86
2022/08/01 01:33:25;;;;;;;9.73;2.40;;;17.50;99.90;;;;;;4752029;30;20057;-86
2022/08/01 01:35:56;;;;;;;8.93;2.10;;;17.50;99.90;;;;;;4751793;30;20066;-85
2022/08/01 01:38:34;;;;;;;10.38;2.15;;;17.50;99.90;;;;;;4766895;30;20051;-86
2022/08/01 01:41:02;;;;;;;11.10;2.17;;;17.40;99.90;;;;;;4766810;30;20055;-86
2022/08/01 01:43:29;;;;;;;5.32;1.92;;;17.40;99.90;;;;;;4767215;30;20408;-85
2022/08/01 01:45:56;;;;;;;7.55;2.25;;;17.40;99.90;;;;;;4752153;30;20054;-85
2022/08/01 01:48:24;;;;;;;7.75;1.70;;;17.40;99.90;;;;;;4751460;30;20490;-85
2022/08/01 01:50:52;;;;;;;11.07;2.10;;;17.30;99.90;;;;;;4752352;30;20047;-85
2022/08/01 01:53:21;;;;;;;17.15;1.90;;;17.30;99.90;;;;;;4767114;30;20059;-85
2022/08/01 01:55:49;;;;;;;15.32;2.10;;;17.30;99.90;;;;;;4751580;30;20759;-85
2022/08/01 01:58:17;;;;;;;6.93;1.58;;;17.30;99.90;;;;;;4751654;30;20124;-85
2022/08/01 02:00:46;;;;;;;9.30;1.52;;;17.20;99.90;;;;;;4751505;30;20213;-85
2022/08/01 02:03:14;;;;;;;9.45;1.30;;;17.20;99.90;;;;;;4751200;30;20055;-85
2022/08/01 02:05:42;;;;;;;11.05;2.00;;;17.20;99.90;;;;;;4766379;30;20086;-85
2022/08/01 02:08:09;;;;;;;12.57;1.80;;;17.20;99.90;;;;;;4751615;30;20706;-84
2022/08/01 02:10:36;;;;;;;12.68;1.67;;;17.20;99.90;;;;;;4765680;30;20561;-85
2022/08/01 02:13:04;;;;;;;13.18;1.52;;;17.20;99.90;;;;;;4752718;30;20564;-85
2022/08/01 02:15:33;;;;;;;7.03;1.58;;;17.30;99.90;;;;;;4766248;30;20082;-85
2022/08/01 02:18:00;;;;;;;13.57;1.77;;;17.20;99.90;;;;;;4751352;30;20047;-85
2022/08/01 02:20:31;;;;;;;10.90;1.77;;;17.20;99.90;;;;;;4767586;30;20485;-85
2022/08/01 02:23:05;;;;;;;10.57;1.80;;;17.20;99.90;;;;;;4769969;30;20057;-85
2022/08/01 02:25:39;;;;;;;11.60;1.65;;;17.20;99.90;;;;;;4752247;30;20083;-85
2022/08/01 02:28:10;;;;;;;13.18;1.92;;;17.20;99.90;;;;;;4752435;30;20055;-85
2022/08/01 02:30:38;;;;;;;13.30;1.60;;;17.20;99.90;;;;;;4751644;30;20056;-84
2022/08/01 02:33:11;;;;;;;13.80;2.15;;;17.20;99.90;;;;;;4737006;30;20083;-84
2022/08/01 02:35:38;;;;;;;;;;;17.10;99.90;;;;;;4738350;30;20055;-85
2022/08/01 02:38:06;;;;;;;8.68;1.70;;;17.20;99.90;;;;;;4751511;30;20298;-85
2022/08/01 02:40:33;;;;;;;13.55;2.53;;;17.10;99.90;;;;;;4752390;30;20060;-86
2022/08/01 02:43:02;;;;;;;12.82;2.00;;;17.10;99.90;;;;;;4752651;30;20052;-85
2022/08/01 02:45:31;;;;;;;12.55;2.20;;;17.20;99.90;;;;;;4736612;30;20493;-85
2022/08/01 02:48:05;;;;;;;11.77;2.38;;;17.10;99.90;;;;;;4751749;30;20067;-84
2022/08/01 02:50:32;;;;;;;17.00;2.42;;;17.20;99.90;;;;;;4752248;30;20062;-86
2022/08/01 02:52:59;;;;;;;17.27;3.40;;;17.10;99.90;;;;;;4751869;30;20385;-85
2022/08/01 02:55:27;;;;;;;22.83;3.08;;;17.10;99.90;;;;;;4751970;30;20064;-85
2022/08/01 02:57:54;;;;;;;21.45;3.20;;;17.10;99.90;;;;;;4742499;30;20122;-85
2022/08/01 03:00:20;;;;;;;17.17;3.05;;;17.10;99.90;;;;;;4753644;30;20145;-85
2022/08/01 03:02:50;;;;;;;13.43;3.20;;;17.10;99.90;;;;;;4769361;30;20047;-85
2022/08/01 03:05:18;;;;;;;11.68;2.60;;;17.10;99.90;;;;;;4754091;30;20058;-85
2022/08/01 03:07:44;;;;;;;20.98;3.40;;;17.10;99.90;;;;;;4769151;30;20054;-85
2022/08/01 03:10:11;;;;;;;12.70;2.78;;;17.00;99.90;;;;;;4754655;30;20055;-85
2022/08/01 03:12:38;;;;;;;13.98;2.92;;;16.90;99.90;;;;;;4769192;30;20051;-85
2022/08/01 03:15:05;;;;;;;13.82;3.22;;;17.00;99.90;;;;;;4756346;29;20065;-84
2022/08/01 03:17:33;;;;;;;15.05;3.28;;;16.90;99.90;;;;;;4772350;29;20180;-85
2022/08/01 03:20:02;;;;;;;14.43;3.22;;;16.80;99.90;;;;;;4760045;30;20112;-85
2022/08/01 03:22:29;;;;;;;16.73;3.75;;;16.80;99.90;;;;;;4769539;30;20051;-84
2022/08/01 03:24:57;;;;;;;14.57;2.92;;;16.80;99.90;;;;;;4754228;30;20062;-84
2022/08/01 03:27:24;;;;;;;11.43;2.63;;;16.80;99.90;;;;;;4753265;30;20156;-85
2022/08/01 03:29:51;;;;;;;14.57;2.92;;;16.70;99.90;;;;;;4754322;30;20047;-85
2022/08/01 03:32:19;;;;;;;11.27;2.58;;;16.70;99.90;;;;;;4753172;30;20051;-84
2022/08/01 03:34:46;;;;;;;17.27;3.10;;;16.70;99.90;;;;;;4753508;30;20050;-84
2022/08/01 03:37:25;;;;;;;12.43;2.90;;;16.70;99.90;;;;;;4753932;30;20469;-85
2022/08/01 03:39:54;;;;;;;11.63;3.05;;;16.60;99.90;;;;;;4754562;30;20047;-85
2022/08/01 03:42:26;;;;;;;16.00;3.42;;;16.60;99.90;;;;;;4768111;30;20074;-85
2022/08/01 03:44:58;;;;;;;15.05;2.83;;;16.70;99.90;;;;;;4754616;30;20488;-85
2022/08/01 03:47:29;;;;;;;16.80;2.72;;;16.60;99.90;;;;;;4752387;30;20051;-85
2022/08/01 03:49:57;;;;;;;15.40;3.83;;;16.60;99.90;;;;;;4754624;30;20128;-85
2022/08/01 03:52:25;;;;;;;17.63;3.10;;;16.60;99.90;;;;;;4753358;30;20051;-85
2022/08/01 03:54:54;;;;;;;14.57;2.58;;;16.60;99.90;;;;;;4753423;30;20104;-84
2022/08/01 03:57:20;;;;;;;15.73;2.75;;;16.60;99.90;;;;;;4753113;30;20051;-85
2022/08/01 03:59:46;;;;;;;14.88;2.70;;;16.60;99.90;;;;;;4768922;30;20587;-85
2022/08/01 04:02:13;;;;;;;11.80;3.38;;;16.60;99.90;;;;;;4766670;30;20073;-85
2022/08/01 04:04:39;;;;;;;13.40;2.70;;;16.60;99.90;;;;;;4768740;30;20057;-85
2022/08/01 04:07:07;;;;;;;15.82;3.40;;;16.50;99.90;;;;;;4768897;30;20051;-84
2022/08/01 04:09:33;;;;;;;15.77;3.03;;;16.60;99.90;;;;;;4768008;30;20066;-85
2022/08/01 04:11:59;;;;;;;17.48;3.13;;;16.50;99.90;;;;;;4768554;30;20047;-85
2022/08/01 04:14:27;;;;;;;14.27;3.42;;;16.50;99.90;;;;;;4767684;30;20112;-84
2022/08/01 04:16:54;;;;;;;11.35;2.80;;;16.50;99.90;;;;;;4767346;30;20048;-85
2022/08/01 04:19:20;;;;;;;18.63;2.97;;;16.60;99.90;;;;;;4768184;30;20106;-85
2022/08/01 04:21:45;;;;;;;16.98;3.08;;;16.50;99.90;;;;;;4768547;30;20055;-85
2022/08/01 04:24:17;;;;;;;16.98;2.75;;;16.60;99.90;;;;;;4767738;30;20044;-84
2022/08/01 04:26:46;;;;;;;15.48;3.38;;;16.60;99.90;;;;;;4753772;30;20461;-85
2022/08/01 04:29:14;;;;;;;21.65;3.38;;;16.60;99.90;;;;;;4752296;30;20055;-84
2022/08/01 04:31:44;;;;;;;16.08;2.50;;;16.60;99.90;;;;;;4751809;30;20055;-85
2022/08/01 04:34:12;;;;;;;14.10;2.92;;;16.70;99.90;;;;;;4767955;30;20543;-85
2022/08/01 04:36:41;;;;;;;14.60;2.53;;;16.70;99.90;;;;;;4781990;29;20660;-84
2022/08/01 04:39:09;;;;;;;25.75;3.03;;;16.70;99.90;;;;;;4767523;30;20195;-84
2022/08/01 04:41:37;;;;;;;18.00;3.33;;;16.70;99.90;;;;;;4768103;30;20575;-85
2022/08/01 04:44:03;;;;;;;24.40;3.03;;;16.70;99.90;;;;;;4766614;30;20055;-85
2022/08/01 04:46:30;;;;;;;16.90;2.50;;;16.60;99.90;;;;;;4767779;30;20132;-84
2022/08/01 04:48:57;;;;;;;17.23;3.65;;;16.60;99.90;;;;;;4782344;30;20055;-84
2022/08/01 04:51:23;;;;;;;16.63;3.45;;;16.60;99.90;;;;;;4751723;30;20149;-84
2022/08/01 04:53:50;;;;;;;25.30;2.97;;;16.60;99.90;;;;;;4768151;30;20138;-85
2022/08/01 04:56:17;;;;;;;21.38;2.95;;;16.60;99.90;;;;;;4767311;30;20104;-84
2022/08/01 04:58:43;;;;;;;23.52;3.10;;;16.60;99.90;;;;;;4767208;30;20055;-85
2022/08/01 05:01:10;;;;;;;24.65;3.17;;;16.60;99.90;;;;;;4767425;30;20138;-85
2022/08/01 05:03:36;;;;;;;20.52;3.80;;;16.60;99.90;;;;;;4767786;30;20485;-85
2022/08/01 05:06:02;;;;;;;17.75;3.00;;;16.60;99.90;;;;;;4767105;30;20059;-85
2022/08/01 05:08:28;;;;;;;19.27;3.05;;;16.60;99.90;;;;;;4752436;30;20051;-85
2022/08/01 05:10:54;;;;;;;18.48;3.15;;;16.60;99.90;;;;;;4767888;30;20081;-85
2022/08/01 05:13:19;;;;;;;25.70;3.97;;;16.60;99.90;;;;;;4767021;30;20047;-84
2022/08/01 05:15:45;;;;;;;23.23;3.45;;;16.60;99.90;;;;;;4752551;30;20511;-84
2022/08/01 05:18:11;;;;;;;16.70;3.30;;;16.60;99.90;;;;;;4752106;30;20051;-84
2022/08/01 05:20:37;;;;;;;19.45;2.97;;;16.70;99.90;;;;;;4738458;30;20060;-85
2022/08/01 05:23:04;;;;;;;22.33;2.80;;;16.70;99.90;;;;;;4749590;30;20147;-84
2022/08/01 05:25:29;;;;;;;21.52;3.88;;;16.70;99.90;;;;;;4749025;30;20055;-83
2022/08/01 05:27:55;;;;;;;28.35;3.72;;;16.70;99.90;;;;;;4776601;29;20051;-84
2022/08/01 05:30:21;;;;;;;21.02;3.15;;;16.70;99.90;;;;;;4766456;30;20062;-83
2022/08/01 05:32:47;;;;;;;23.40;3.42;;;16.70;99.90;;;;;;4759878;30;20089;-85
2022/08/01 05:35:12;;;;;;;21.17;3.85;;;16.70;99.90;;;;;;4749344;30;20536;-85
2022/08/01 05:37:38;;;;;;;27.25;3.42;;;16.80;99.90;;;;;;4751300;30;20088;-84
2022/08/01 05:40:05;;;;;;;24.27;3.40;;;16.70;99.90;;;;;;4766191;30;20046;-85
2022/08/01 05:42:30;;;;;;;20.52;3.13;;;16.70;99.90;;;;;;4782083;30;20051;-86
2022/08/01 05:44:56;;;;;;;23.90;3.40;;;16.70;99.90;;;;;;4767661;30;20103;-84
2022/08/01 05:47:22;;;;;;;23.60;3.78;;;16.70;99.90;;;;;;4765522;30;20548;-85
2022/08/01 05:49:48;;;;;;;25.25;3.58;;;16.80;99.90;;;;;;4767403;30;20142;-85
2022/08/01 05:52:14;;;;;;;23.52;3.22;;;16.80;99.90;;;;;;4767398;30;20055;-85
2022/08/01 05:54:40;;;;;;;22.00;3.00;;;16.80;99.90;;;;;;4766605;30;20162;-85
2022/08/01 05:57:05;;;;;;;22.75;4.22;;;16.80;99.90;;;;;;4766938;30;20571;-86
2022/08/01 05:59:31;;;;;;;24.95;4.13;;;16.80;99.90;;;;;;4764683;30;20163;-86
2022/08/01 06:01:57;;;;;;;21.80;3.75;;;16.80;99.90;;;;;;4755297;30;20082;-85
2022/08/01 06:04:23;;;;;;;20.27;2.95;;;16.80;99.90;;;;;;4754753;30;20104;-85
2022/08/01 06:06:49;;;;;;;26.20;3.60;;;16.80;99.90;;;;;;4756993;30;20505;-86
2022/08/01 06:09:14;;;;;;;25.85;3.20;;;16.80;99.90;;;;;;4740795;30;20048;-86
2022/08/01 06:11:40;;;;;;;22.63;3.40;;;16.90;99.90;;;;;;4742282;30;20048;-86
2022/08/01 06:14:06;;;;;;;22.95;3.13;;;16.90;99.90;;;;;;4743834;30;20467;-86
2022/08/01 06:16:32;;;;;;;18.48;3.08;;;16.90;99.90;;;;;;4765898;30;20051;-87
2022/08/01 06:18:58;;;;;;;22.67;3.08;;;16.90;99.90;;;;;;4760980;30;20562;-86
2022/08/01 06:21:23;;;;;;;19.80;3.33;;;16.90;99.90;;;;;;4759447;30;20351;-87
2022/08/01 06:23:49;;;;;;;19.85;2.58;;;17.00;99.90;;;;;;4755806;30;20878;-86
2022/08/01 06:26:18;;;;;;;23.27;3.15;;;17.00;99.90;;;;;;4755443;30;20517;-86
2022/08/01 06:28:44;;;;;;;19.65;3.08;;;17.00;99.90;;;;;;4746652;30;20078;-87
2022/08/01 06:31:12;;;;;;;25.33;3.40;;;17.00;99.90;;;;;;4751180;30;20098;-86
2022/08/01 06:33:38;;;;;;;22.10;3.42;;;17.00;99.90;;;;;;4766939;30;20133;-86
2022/08/01 06:36:04;;;;;;;22.58;3.75;;;17.00;99.90;;;;;;4766869;30;20268;-86
2022/08/01 06:38:29;;;;;;;26.92;3.42;;;17.00;99.90;;;;;;4766539;30;20572;-87
2022/08/01 06:40:55;;;;;;;19.50;2.60;;;17.00;99.90;;;;;;4752344;30;20110;-87
2022/08/01 06:43:21;;;;;;;16.92;2.60;;;17.00;99.90;;;;;;4751099;30;20212;-86
2022/08/01 06:45:47;;;;;;;21.25;3.33;;;17.00;99.90;;;;;;4752560;30;20170;-87
2022/08/01 06:48:13;;;;;;;21.35;3.28;;;17.00;99.90;;;;;;4738125;30;20077;-87
2022/08/01 06:50:39;;;;;;;22.63;2.88;;;17.10;99.90;;;;;;4748410;30;20098;-86
2022/08/01 06:53:05;;;;;;;25.00;3.13;;;17.10;99.90;;;;;;4749549;30;20040;-86
2022/08/01 06:55:31;;;;;;;19.17;3.22;;;17.10;99.90;;;;;;4748392;30;20469;-87
2022/08/01 06:57:57;;;;;;;19.38;3.05;;;17.20;99.90;;;;;;4748585;30;20058;-87
2022/08/01 07:00:24;;;;;;;18.67;3.58;;;17.30;99.90;;;;;;4748441;30;20051;-87
2022/08/01 07:02:51;;;;;;;21.30;3.47;;;17.30;99.90;;;;;;4748599;30;20082;-87
2022/08/01 07:05:17;;;;;;;21.67;2.92;;;17.40;99.90;;;;;;4748534;30;20150;-87
2022/08/01 07:07:43;;;;;;;24.73;3.15;;;17.40;99.90;;;;;;4750778;30;20139;-87
2022/08/01 07:10:09;;;;;;;21.33;3.25;;;17.50;99.90;;;;;;4752217;30;20059;-87
2022/08/01 07:12:37;;;;;;;20.63;3.47;;;17.60;99.90;;;;;;4751955;30;20499;-87
2022/08/01 07:15:05;;;;;;;18.50;2.58;;;17.70;99.90;;;;;;4750951;30;20044;-80
2022/08/01 07:17:31;;;;;;;24.30;3.30;;;17.80;99.90;;;;;;4776286;29;20054;-79
2022/08/01 07:19:57;;;;;;;14.27;2.53;;;17.80;99.90;;;;;;4783565;30;20063;-80
2022/08/01 07:22:23;;;;;;;14.05;2.65;;;17.90;99.90;;;;;;4753516;30;20062;-80
2022/08/01 07:24:48;;;;;;;17.15;3.25;;;18.00;99.90;;;;;;4768894;30;20051;-80
2022/08/01 07:27:14;;;;;;;17.30;2.78;;;18.10;99.90;;;;;;4767841;30;20054;-81
2022/08/01 07:29:40;;;;;;;12.85;2.30;;;18.10;99.90;;;;;;4785398;30;20062;-81
2022/08/01 07:32:06;;;;;;;12.55;2.47;;;18.10;99.90;;;;;;4783797;30;20402;-80
2022/08/01 07:34:31;;;;;;;20.52;2.80;;;18.10;99.90;;;;;;4768407;30;20054;-80
2022/08/01 07:36:57;;;;;;;18.48;2.40;;;18.10;99.90;;;;;;4763360;30;20488;-81
2022/08/01 07:39:23;;;;;;;20.02;3.08;;;18.20;99.90;;;;;;4759526;30;20047;-80
2022/08/01 07:41:48;;;;;;;21.85;2.67;;;18.40;99.90;;;;;;4761772;30;20117;-81
2022/08/01 07:44:14;;;;;;;16.95;2.78;;;18.40;99.90;;;;;;4765225;30;20059;-81
2022/08/01 07:46:40;;;;;;;18.45;2.70;;;18.40;99.90;;;;;;4756989;30;20434;-81
2022/08/01 07:49:05;;;;;;;21.17;3.25;;;18.50;99.90;;;;;;4774971;30;20088;-80
2022/08/01 07:51:31;;;;;;;17.63;2.58;;;18.60;99.90;;;;;;4759782;30;20052;-80
2022/08/01 07:53:57;;;;;;;25.95;2.55;;;18.70;99.90;;;;;;4757654;30;20353;-80
2022/08/01 07:56:23;;;;;;;20.13;2.60;;;18.90;99.90;;;;;;4758644;30;20062;-81
2022/08/01 07:58:50;;;;;;;19.92;2.67;;;19.00;99.90;;;;;;4758951;30;20063;-80
2022/08/01 08:01:16;;;;;;;14.90;2.10;;;18.90;99.90;;;;;;4772379;30;20118;-80
2022/08/01 08:03:41;;;;;;;15.52;2.75;;;18.70;99.90;;;;;;4759586;30;20058;-80
2022/08/01 08:06:07;;;;;;;16.25;2.08;;;18.60;99.90;;;;;;4754921;30;20481;-80
2022/08/01 08:08:34;;;;;;;21.83;3.22;;;18.50;99.90;;;;;;4759787;30;20047;-80
2022/08/01 08:11:00;;;;;;;19.00;2.50;;;18.30;99.90;;;;;;4784678;30;20074;-80
2022/08/01 08:13:26;;;;;;;17.23;2.22;;;18.30;99.90;;;;;;4784601;30;20081;-87
2022/08/01 08:15:52;;;;;;;13.45;2.50;;;18.40;99.90;;;;;;4753942;30;20489;-87
2022/08/01 08:18:18;;;;;;;14.13;2.03;;;18.50;99.90;;;;;;4736820;30;20424;-86
2022/08/01 08:20:44;;;;;;;14.88;2.45;;;18.60;99.90;;;;;;4750878;30;20044;-87
2022/08/01 08:25:54;;;;;;;14.88;2.42;;;18.70;99.90;;;;;;4752012;30;20087;-87
2022/08/01 08:28:20;;;;;;;13.30;2.30;;;18.90;99.90;;;;;;4750264;30;20087;-87
2022/08/01 08:30:46;;;;;;;16.73;2.33;;;19.10;99.90;;;;;;4736036;30;20055;-87
2022/08/01 08:33:12;;;;;;;13.98;2.40;;;19.20;99.90;;;;;;4750515;30;20094;-87
2022/08/01 08:35:40;;;;;;;15.77;2.22;;;19.30;99.90;;;;;;4750627;30;20050;-87
2022/08/01 08:38:06;;;;;;;16.98;2.05;;;19.50;99.90;;;;;;4750787;30;20126;-87
2022/08/01 08:40:35;;;;;;;14.55;1.95;;;19.70;99.90;;;;;;4750101;30;20078;-81
2022/08/01 08:43:03;;;;;;;14.48;2.13;;;19.80;99.90;;;;;;4749327;30;20040;-82
2022/08/01 08:45:30;;;;;;;17.25;1.85;;;19.90;99.90;;;;;;4749170;30;20055;-81
2022/08/01 08:47:57;;;;;;;12.70;1.95;;;20.00;99.90;;;;;;4743443;30;20059;-82
2022/08/01 08:50:25;;;;;;;23.05;3.50;;;19.80;99.90;;;;;;4732988;30;20143;-81
2022/08/01 08:52:54;;;;;;;19.00;2.15;;;19.50;99.90;;;;;;4749985;30;20059;-81
2022/08/01 08:55:21;;;;;;;18.50;2.03;;;19.20;99.90;;;;;;4748869;30;20048;-81
2022/08/01 08:57:48;;;;;;;13.40;2.00;;;19.20;99.90;;;;;;4748701;30;20144;-80
2022/08/01 09:00:15;;;;;;;15.57;2.03;;;19.20;99.90;;;;;;4756134;30;20528;-81
2022/08/01 09:02:44;;;;;;;16.30;2.13;;;19.30;99.90;;;;;;4758187;30;20059;-81
2022/08/01 09:05:11;;;;;;;11.10;2.08;;;19.40;99.90;;;;;;4757254;30;20584;-81
2022/08/01 09:07:37;;;;;;;12.70;2.15;;;19.50;99.90;;;;;;4771563;30;20082;-81
2022/08/01 09:10:03;;;;;;;14.98;1.92;;;19.50;99.90;;;;;;4772908;29;20055;-81
2022/08/01 09:12:29;;;;;;;14.02;1.95;;;19.70;99.90;;;;;;4757350;30;20499;-82
2022/08/01 09:14:55;;;;;;;12.75;2.03;;;19.90;99.90;;;;;;4749776;30;20110;-81
2022/08/01 09:17:21;;;;;;;18.10;2.20;;;20.00;99.90;;;;;;4764283;30;20204;-81
2022/08/01 09:19:51;;;;;;;14.85;2.20;;;20.00;99.90;;;;;;4749030;30;20074;-81
2022/08/01 09:22:22;;;;;;;14.45;1.88;;;20.00;99.90;;;;;;4748447;30;20098;-81
2022/08/01 09:25:00;;;;;;;13.70;1.70;;;20.10;99.90;;;;;;4764272;30;20489;-81
2022/08/01 09:27:26;;;;;;;13.98;2.20;;;20.20;99.90;;;;;;4748554;30;20059;-82
2022/08/01 09:29:53;;;;;;;12.05;2.38;;;20.20;99.90;;;;;;4748868;30;20112;-82
2022/08/01 09:32:20;;;;;;;15.35;1.95;;;20.00;99.90;;;;;;4747060;30;20056;-82
2022/08/01 09:34:46;;;;;;;13.27;1.77;;;19.80;99.90;;;;;;4749411;30;20083;-81
2022/08/01 09:37:13;;;;;;;11.10;1.70;;;19.80;99.90;;;;;;4758631;30;20408;-81
2022/08/01 09:39:42;;;;;;;15.90;1.83;;;19.80;99.90;;;;;;4765890;30;20442;-81
2022/08/01 09:42:26;;;;;;;9.63;1.60;;;19.80;99.90;;;;;;4765847;30;20059;-82
2022/08/01 09:44:52;;;;;;;6.72;1.27;;;20.00;99.90;;;;;;4781106;30;20079;-81
2022/08/01 09:47:20;;;;;;;17.00;1.20;;;20.20;99.90;;;;;;4764998;30;20054;-82
2022/08/01 09:49:54;;;;;;;11.27;1.40;;;20.20;99.90;;;;;;4766523;30;20046;-81
2022/08/01 09:52:22;;;;;;;11.48;1.45;;;20.20;99.90;;;;;;4765878;30;20430;-82
2022/08/01 09:55:00;;;;;;;16.52;2.45;;;20.30;99.90;;;;;;4765803;30;20089;-82
2022/08/01 09:57:27;;;;;;;9.55;1.48;;;20.30;99.90;;;;;;4765613;30;20462;-82
2022/08/01 09:59:57;;;;;;;9.60;1.52;;;20.30;99.90;;;;;;4765957;30;20545;-81
2022/08/01 10:02:35;;;;;;;10.80;1.38;;;20.30;99.90;;;;;;4763952;30;20062;-82
2022/08/01 10:05:06;;;;;;;10.48;1.70;;;20.20;99.90;;;;;;4765854;30;20116;-82
2022/08/01 10:07:32;;;;;;;8.80;1.25;;;20.20;99.90;;;;;;4762339;30;20043;-82
2022/08/01 10:10:13;;;;;;;10.18;1.33;;;20.30;99.90;;;;;;4748873;30;20080;-81
2022/08/01 10:12:41;;;;;;;13.55;2.03;;;20.30;99.90;;;;;;4748669;30;20468;-83
2022/08/01 10:15:08;;;;;;;10.48;1.40;;;20.50;99.90;;;;;;4747070;30;20630;-82
2022/08/01 10:17:34;;;;;;;11.38;1.58;;;20.30;99.90;;;;;;4748374;30;20051;-82
2022/08/01 10:20:02;;;;;;;9.77;1.25;;;20.10;99.90;;;;;;4748791;30;20058;-81
2022/08/01 10:22:30;;;;;;;14.60;1.83;;;20.00;99.90;;;;;;4747864;30;20119;-82
2022/08/01 10:25:01;;;;;;;9.05;1.52;;;20.10;99.90;;;;;;4748461;30;20581;-82
2022/08/01 10:27:32;;;;;;;10.57;1.45;;;20.20;99.90;;;;;;4748701;30;20066;-82
2022/08/01 10:30:03;;;;;;;12.23;1.63;;;20.30;99.90;;;;;;4748492;30;20066;-82
2022/08/01 10:32:31;;;;;;;10.02;1.50;;;20.60;99.90;;;;;;4747857;30;20128;-83
2022/08/01 10:34:58;;;;;;;8.48;1.20;;;20.50;99.90;;;;;;4748536;30;20147;-81
2022/08/01 10:37:24;;;;;;;9.32;1.20;;;20.30;99.90;;;;;;4747142;30;20056;-81
2022/08/01 10:39:52;;;;;;;8.93;1.45;;;20.40;99.90;;;;;;4764830;30;20151;-81
2022/08/01 10:42:18;;;;;;;9.25;1.25;;;20.50;99.90;;;;;;4749211;30;20048;-82
2022/08/01 10:44:47;;;;;;;14.98;2.03;;;20.50;99.90;;;;;;4751476;30;20055;-82
2022/08/01 10:47:23;;;;;;;11.85;1.48;;;20.30;99.90;;;;;;4750826;30;20109;-81
2022/08/01 10:50:04;;;;;;;8.80;1.88;;;20.20;99.90;;;;;;4751108;30;20055;-80
2022/08/01 10:52:30;;;;;;;10.95;1.20;;;20.30;99.90;;;;;;4751509;30;20789;-81
2022/08/01 10:55:09;;;;;;;10.63;1.70;;;20.30;99.90;;;;;;4752032;30;20433;-81
2022/08/01 10:57:47;;;;;;;13.15;1.80;;;20.20;99.90;;;;;;4755899;30;20416;-81
2022/08/01 11:00:18;;;;;;;7.07;1.48;;;20.10;99.90;;;;;;4751206;30;20063;-81
2022/08/01 11:03:00;;;;;;;9.13;1.13;;;20.00;99.90;;;;;;4750498;30;20047;-81
2022/08/01 11:05:28;;;;;;;15.00;1.38;;;20.10;99.90;;;;;;4735344;30;20082;-81
2022/08/01 11:07:54;;;;;;;10.45;1.33;;;20.30;99.90;;;;;;4751442;30;20512;-82
2022/08/01 11:10:26;;;;;;;7.60;1.30;;;20.30;99.90;;;;;;4749752;30;20508;-82
2022/08/01 11:12:52;;;;;;;11.23;1.15;;;20.40;99.90;;;;;;4751218;30;20059;-81
2022/08/01 11:15:27;;;;;;;10.98;1.65;;;20.40;99.90;;;;;;4750081;30;20055;-82
2022/08/01 11:17:53;;;;;;;10.40;1.30;;;20.50;99.90;;;;;;4749990;30;20087;-81
2022/08/01 11:20:22;;;;;;;8.65;1.33;;;20.60;99.90;;;;;;4749937;30;20067;-81
2022/08/01 11:23:01;;;;;;;11.32;1.42;;;20.60;99.90;;;;;;4751124;30;20496;-80
2022/08/01 11:25:36;;;;;;;9.65;1.15;;;20.60;99.90;;;;;;4749584;30;20534;-81
2022/08/01 11:28:16;;;;;;;4.25;0.82;;;20.60;99.90;;;;;;4752895;30;20104;-81
2022/08/01 11:30:44;;;;;;;8.38;1.25;;;20.50;99.90;;;;;;4758137;30;20500;-81
2022/08/01 11:33:12;;;;;;;6.68;1.10;;;20.60;99.90;;;;;;4757723;30;20524;-82
2022/08/01 11:36:10;;;;;;;6.93;1.00;;;20.60;99.90;;;;;;4757291;30;20059;-82
2022/08/01 11:38:39;;;;;;;12.65;1.00;;;20.70;99.90;;;;;;4751422;30;20391;-92
2022/08/01 11:41:23;;;;;;;6.32;1.10;;;20.60;99.90;;;;;;4753477;30;20044;-92
2022/08/01 11:44:01;;;;;;;10.75;1.20;;;20.50;99.90;;;;;;4740166;30;20048;-90
2022/08/01 11:46:53;;;;;;;7.65;1.38;;;20.30;99.90;;;;;;4767862;30;20047;-90
2022/08/01 11:49:40;;;;;;;11.32;1.52;;;20.00;99.90;;;;;;4739362;30;20047;-91
2022/08/01 11:52:10;;;;;;;9.43;1.40;;;20.00;99.90;;;;;;4753318;30;20112;-90
2022/08/01 11:54:45;;;;;;;9.98;1.40;;;20.10;99.90;;;;;;4739339;30;20048;-91
2022/08/01 11:57:13;;;;;;;6.18;1.08;;;20.40;99.90;;;;;;4738662;30;20075;-90
2022/08/01 11:59:49;;;;;;;9.77;1.00;;;20.50;99.90;;;;;;4738822;30;20056;-91
2022/08/01 12:02:17;;;;;;;12.25;1.92;;;20.70;99.90;;;;;;4753713;30;20066;-90
2022/08/01 12:04:46;;;;;;;13.88;1.40;;;20.80;99.90;;;;;;4739054;30;20044;-90
2022/08/01 12:07:14;;;;;;;10.07;1.50;;;21.00;99.90;;;;;;4738842;30;20142;-90
2022/08/01 12:09:40;;;;;;;8.70;1.17;;;21.10;99.90;;;;;;4738763;30;20051;-90
2022/08/01 12:12:06;;;;;;;6.47;1.13;;;21.10;99.90;;;;;;4738154;30;20500;-88
2022/08/01 12:14:32;;;;;;;7.50;0.95;;;21.10;99.90;;;;;;4738845;30;20051;-89
2022/08/01 12:16:57;;;;;;;7.20;1.38;;;21.10;99.90;;;;;;4753820;30;20051;-89
2022/08/01 12:19:24;;;;;;;9.98;1.30;;;21.10;99.90;;;;;;4752952;30;20063;-90
2022/08/01 12:22:13;;;;;;;8.45;1.17;;;21.10;99.90;;;;;;4738723;30;20048;-91
2022/08/01 12:24:41;;;;;;;6.38;0.98;;;21.10;99.90;;;;;;4738215;30;20402;-91
2022/08/01 12:27:09;;;;;;;6.95;1.02;;;21.10;99.90;;;;;;4754290;30;20489;-90
2022/08/01 12:29:39;;;;;;;10.65;1.40;;;21.20;99.90;;;;;;4756155;30;20047;-91
2022/08/01 12:32:25;;;;;;;8.73;1.13;;;21.30;99.90;;;;;;4756017;30;20044;-90
2022/08/01 12:34:52;;;;;;;9.32;1.20;;;21.10;99.90;;;;;;4756616;30;20047;-90
2022/08/01 12:37:18;;;;;;;8.75;1.30;;;20.80;99.90;;;;;;4755882;30;20188;-90
2022/08/01 12:39:45;;;;;;;9.13;1.27;;;20.80;99.90;;;;;;4756215;30;20089;-90
2022/08/01 12:42:13;;;;;;;5.63;0.93;;;20.80;99.90;;;;;;4755998;30;20047;-91
2022/08/01 12:44:40;;;;;;;11.70;1.27;;;20.80;99.90;;;;;;4756059;30;20062;-90
2022/08/01 12:47:06;;;;;;;9.27;0.80;;;20.70;99.90;;;;;;4755811;30;20054;-90
2022/08/01 12:49:35;;;;;;;6.93;1.20;;;20.70;99.90;;;;;;4755760;30;20146;-89